Time;durP1;ratioP1;P1;durP2;ratioP2;P2;SDS_P1;SDS_P2;PMS_P1;PMS_P2;Temp;Humidity;BMP_temperature;BMP_pressure;BME280_temperature;BME280_humidity;BME280_pressure;Samples;Min_cycle;Max_cycle;Signal;HPM_P1;HPM_P2
2022/08/02 03:33:39;;;;;;;11.45;9.33;;;;;;;17.83;100.00;99454.19;1764813;79;28784;-79
2022/08/02 03:36:46;;;;;;;9.58;8.23;;;;;;;17.76;100.00;99449.35;1754546;80;21164;-79
2022/08/02 03:39:51;;;;;;;13.98;8.80;;;;;;;17.93;100.00;99442.53;1754622;82;21727;-79
2022/08/02 03:42:57;;;;;;;18.25;8.50;;;;;;;18.02;100.00;99434.98;1753333;80;21730;-79
2022/08/02 03:46:04;;;;;;;9.28;8.18;;;;;;;18.08;100.00;99423.45;1754619;82;21207;-81
2022/08/02 03:49:09;;;;;;;9.63;7.90;;;;;;;18.07;100.00;99424.55;1754497;82;21240;-80
2022/08/02 03:52:15;;;;;;;10.85;8.45;;;;;;;18.13;100.00;99419.41;1753340;80;21195;-80
2022/08/02 03:55:21;;;;;;;14.25;9.20;;;;;;;18.20;100.00;99406.78;1754998;82;21167;-80
2022/08/02 03:58:29;;;;;;;10.98;8.90;;;;;;;18.20;100.00;99399.87;1753835;80;21191;-80
2022/08/02 04:01:34;;;;;;;13.30;10.35;;;;;;;18.31;100.00;99387.91;1754909;80;21175;-80
2022/08/02 04:04:40;;;;;;;11.12;9.80;;;;;;;18.49;100.00;99381.28;1754945;82;21155;-80
2022/08/02 04:07:47;;;;;;;13.00;9.55;;;;;;;18.71;100.00;99384.19;1723308;82;21212;-80
2022/08/02 04:14:18;;;;;;;12.30;9.05;;;;;;;19.00;100.00;99372.45;1723734;83;21153;-79
2022/08/02 04:17:25;;;;;;;9.80;8.80;;;;;;;18.93;100.00;99369.03;1723295;82;21193;-80
2022/08/02 04:20:34;;;;;;;11.48;9.63;;;;;;;18.94;100.00;99375.70;1723788;83;21161;-79
2022/08/02 04:23:39;;;;;;;16.05;11.08;;;;;;;19.03;100.00;99372.79;1722638;82;21197;-80
2022/08/02 04:26:46;;;;;;;14.68;10.30;;;;;;;19.16;100.00;99364.67;1723708;82;21169;-80
2022/08/02 04:29:51;;;;;;;10.80;7.87;;;;;;;19.35;100.00;99355.50;1722361;83;21765;-79
2022/08/02 04:32:57;;;;;;;9.15;8.25;;;;;;;19.63;100.00;99345.64;1727942;81;21808;-79
2022/08/02 04:36:02;;;;;;;9.73;8.23;;;;;;;19.65;100.00;99348.14;1723316;83;21176;-80
2022/08/02 04:39:08;;;;;;;9.48;8.48;;;;;;;19.86;100.00;99341.75;1723284;83;21181;-80
2022/08/02 04:42:14;;;;;;;7.80;7.00;;;;;;;20.01;100.00;99346.63;1723001;82;21205;-80
2022/08/02 04:45:20;;;;;;;7.40;6.47;;;;;;;20.29;100.00;99346.06;1723263;83;21721;-80
2022/08/02 04:48:26;;;;;;;10.25;6.47;;;;;;;20.43;100.00;99346.75;1722982;82;21201;-80
2022/08/02 04:51:32;;;;;;;7.50;6.75;;;;;;;20.57;100.00;99347.73;1723186;82;21161;-82
2022/08/02 04:54:37;;;;;;;8.38;6.35;;;;;;;20.75;100.00;99343.16;1723192;83;21169;-79
2022/08/02 04:57:56;;;;;;;8.48;6.60;;;;;;;20.96;100.00;99335.79;1722724;82;21244;-81
2022/08/02 05:01:04;;;;;;;7.20;6.50;;;;;;;21.17;100.00;99336.22;1721979;83;21193;-80
2022/08/02 05:04:09;;;;;;;9.80;7.10;;;;;;;21.40;100.00;99329.94;1720770;83;21201;-81
2022/08/02 05:07:14;;;;;;;7.55;6.17;;;;;;;21.55;100.00;99331.42;1722974;82;21216;-81
2022/08/02 05:10:20;;;;;;;13.38;6.62;;;;;;;21.65;100.00;99333.41;1721957;83;22084;-81
2022/08/02 05:13:26;;;;;;;7.20;5.72;;;;;;;21.69;100.00;99339.55;1721959;82;21244;-81
2022/08/02 05:16:25;;;;;;;8.50;7.08;;;;;;;21.83;100.00;99349.61;1721879;83;21228;-81
2022/08/02 05:19:30;;;;;;;9.85;6.65;;;;;;;21.89;100.00;99352.69;1722018;83;21239;-81
2022/08/02 05:22:37;;;;;;;6.90;6.08;;;;;;;22.05;99.65;99358.29;1721845;82;21224;-80
2022/08/02 05:25:43;;;;;;;6.75;6.05;;;;;;;22.19;98.03;99365.87;1723371;83;21220;-80
2022/08/02 05:28:48;;;;;;;6.72;5.33;;;;;;;22.23;96.99;99362.54;1721968;82;21212;-80
2022/08/02 05:31:47;;;;;;;8.63;5.45;;;;;;;22.42;95.29;99363.68;1721990;82;21205;-80
2022/08/02 05:34:45;;;;;;;5.92;5.30;;;;;;;22.59;93.98;99361.47;1722855;82;21240;-81
2022/08/02 05:37:50;;;;;;;6.20;5.60;;;;;;;22.74;93.06;99369.55;1722554;82;21228;-81
2022/08/02 05:40:57;;;;;;;5.80;5.25;;;;;;;22.92;90.96;99363.45;1723301;83;21445;-82
2022/08/02 05:44:02;;;;;;;5.80;4.92;;;;;;;22.98;90.83;99366.50;1722507;83;21189;-81
2022/08/02 05:47:07;;;;;;;5.70;5.10;;;;;;;23.05;89.00;99367.03;1723095;82;21244;-81
2022/08/02 05:50:14;;;;;;;4.87;4.40;;;;;;;23.03;89.09;99368.44;1721622;83;21658;-81
2022/08/02 05:53:30;;;;;;;5.10;4.60;;;;;;;23.18;88.55;99377.61;1723250;82;21359;-81
2022/08/02 05:57:02;;;;;;;4.42;4.03;;;;;;;23.36;88.17;99378.14;1721787;82;21777;-81
2022/08/02 06:00:17;;;;;;;5.00;4.03;;;;;;;23.50;86.22;99382.56;1723166;83;21172;-81
2022/08/02 06:03:40;;;;;;;4.75;4.35;;;;;;;23.61;83.23;99379.44;1721688;82;21196;-81
2022/08/02 06:06:39;;;;;;;6.22;4.75;;;;;;;23.76;82.51;99367.44;1721832;82;21189;-80
2022/08/02 06:09:45;;;;;;;5.45;4.62;;;;;;;23.81;83.43;99363.79;1723367;83;21181;-81
2022/08/02 06:13:09;;;;;;;3.45;3.10;;;;;;;23.82;83.93;99369.64;1729283;81;21287;-81
2022/08/02 06:16:15;;;;;;;5.05;3.98;;;;;;;23.82;80.54;99365.45;1723295;83;21169;-81
2022/08/02 06:19:23;;;;;;;4.47;4.08;;;;;;;23.95;81.68;99356.45;1722260;83;21749;-80
2022/08/02 06:22:35;;;;;;;3.15;2.90;;;;;;;24.09;81.78;99358.02;1727060;83;21228;-81
2022/08/02 06:25:29;;;;;;;4.95;3.60;;;;;;;24.23;78.02;99353.50;1721884;83;21236;-81
2022/08/02 06:28:35;;;;;;;3.55;3.22;;;;;;;24.15;77.08;99353.53;1721207;82;21201;-81
2022/08/02 06:31:41;;;;;;;4.03;3.37;;;;;;;24.27;77.12;99357.92;1721762;83;21169;-81
2022/08/02 06:34:46;;;;;;;37.20;8.33;;;;;;;24.42;76.64;99368.48;1718883;83;21280;-81
2022/08/02 06:38:00;;;;;;;6.47;4.15;;;;;;;24.62;75.40;99377.27;1712204;82;21212;-80
2022/08/02 06:41:15;;;;;;;3.35;3.05;;;;;;;24.73;75.74;99372.42;1700312;84;21166;-80
2022/08/02 06:44:15;;;;;;;3.77;3.08;;;;;;;24.83;76.00;99379.33;1728188;83;21244;-79
2022/08/02 06:47:22;;;;;;;3.60;3.30;;;;;;;24.90;72.17;99383.20;1727618;83;21208;-81
2022/08/02 06:50:28;;;;;;;5.28;3.50;;;;;;;24.90;73.85;99386.83;1744889;82;21201;-81
2022/08/02 06:53:34;;;;;;;4.92;3.20;;;;;;;24.92;73.52;99380.36;1731229;81;21762;-81
2022/08/02 06:56:40;;;;;;;3.87;2.70;;;;;;;24.88;73.38;99382.64;1741123;81;21232;-81
2022/08/02 06:59:45;;;;;;;2.87;2.60;;;;;;;24.98;71.88;99389.54;1734219;82;21218;-81
2022/08/02 07:02:52;;;;;;;2.60;2.40;;;;;;;25.05;71.65;99384.45;1721705;82;21227;-81
2022/08/02 07:06:00;;;;;;;4.25;2.60;;;;;;;25.08;70.01;99382.51;1744324;82;21160;-80
2022/08/02 07:09:07;;;;;;;17.95;5.70;;;;;;;25.21;70.63;99380.39;1722429;83;21160;-82
2022/08/02 07:12:15;;;;;;;41.68;10.35;;;;;;;25.33;69.53;99388.41;1720891;82;21188;-82
2022/08/02 07:15:21;;;;;;;8.28;3.25;;;;;;;25.46;68.66;99384.08;1721045;83;21156;-82
2022/08/02 07:18:27;;;;;;;3.42;2.87;;;;;;;25.55;69.24;99389.83;1684719;84;21200;-82
2022/08/02 07:21:33;;;;;;;3.83;3.27;;;;;;;25.63;68.70;99387.22;1684430;84;21760;-81
2022/08/02 07:24:40;;;;;;;4.58;2.87;;;;;;;25.64;69.15;99383.31;1684658;85;21221;-81
2022/08/02 07:27:47;;;;;;;3.25;2.83;;;;;;;25.77;68.08;99393.53;1687978;84;21189;-81
2022/08/02 07:30:54;;;;;;;4.58;2.92;;;;;;;25.91;66.42;99391.67;1693822;84;21815;-81
2022/08/02 07:34:00;;;;;;;4.50;3.55;;;;;;;25.98;64.99;99400.56;1712563;84;21694;-82
2022/08/02 07:37:06;;;;;;;3.52;2.90;;;;;;;25.98;63.19;99387.38;1716748;82;21791;-82
2022/08/02 07:40:14;;;;;;;4.90;3.37;;;;;;;26.07;62.37;99398.77;1697664;82;21209;-82
2022/08/02 07:43:33;;;;;;;4.65;3.30;;;;;;;26.15;61.22;99392.46;1692911;83;21204;-82
2022/08/02 07:46:38;;;;;;;3.27;2.98;;;;;;;26.30;62.00;99387.77;1700541;82;21782;-82
2022/08/02 07:49:45;;;;;;;3.70;3.10;;;;;;;26.41;59.82;99387.34;1713853;83;21149;-82
2022/08/02 07:52:50;;;;;;;3.40;3.10;;;;;;;26.50;59.89;99392.56;1720358;82;22072;-82
2022/08/02 07:55:57;;;;;;;5.70;3.40;;;;;;;26.61;61.44;99390.42;1719035;83;21173;-82
2022/08/02 07:59:03;;;;;;;3.60;3.30;;;;;;;26.76;59.43;99397.18;1722430;83;21181;-82
2022/08/02 08:02:08;;;;;;;6.35;3.27;;;;;;;26.69;59.65;99403.76;1687820;83;21219;-84
2022/08/02 08:05:16;;;;;;;3.55;2.90;;;;;;;26.78;58.21;99403.91;1707376;81;21192;-82
2022/08/02 08:08:21;;;;;;;6.80;3.50;;;;;;;26.66;58.70;99401.55;1734699;81;21231;-83
2022/08/02 08:11:27;;;;;;;4.87;3.27;;;;;;;26.72;59.07;99401.76;1742843;82;21162;-82
2022/08/02 08:14:34;;;;;;;2.95;2.70;;;;;;;26.69;58.73;99393.94;1714940;83;21822;-84
2022/08/02 08:17:40;;;;;;;4.80;3.40;;;;;;;26.65;59.79;99401.87;1720418;81;21769;-82
2022/08/02 08:20:46;;;;;;;3.70;3.17;;;;;;;26.44;60.43;99403.59;1739469;82;21221;-82
2022/08/02 08:23:46;;;;;;;6.37;3.55;;;;;;;26.37;59.97;99408.70;1710390;83;21765;-83
2022/08/02 08:26:51;;;;;;;5.78;3.50;;;;;;;26.38;59.06;99419.34;1731457;81;21192;-83
2022/08/02 08:29:58;;;;;;;4.05;3.25;;;;;;;26.45;58.49;99417.04;1732546;83;21161;-82
2022/08/02 08:33:03;;;;;;;5.35;3.10;;;;;;;26.54;58.15;99415.23;1728307;82;21749;-81
2022/08/02 08:36:08;;;;;;;4.70;3.50;;;;;;;26.74;59.07;99415.47;1725704;83;21231;-82
2022/08/02 08:39:14;;;;;;;3.70;3.40;;;;;;;26.93;59.69;99419.08;1717472;82;21175;-82
2022/08/02 08:42:19;;;;;;;4.03;3.37;;;;;;;27.20;59.33;99411.36;1727747;81;22014;-82
2022/08/02 08:45:25;;;;;;;3.75;3.20;;;;;;;27.50;56.50;99417.53;1729914;82;21752;-81
2022/08/02 08:48:25;;;;;;;;;;;;;;;27.68;57.66;99425.05;1730563;81;21780;-81
2022/08/02 08:51:30;;;;;;;4.00;3.22;;;;;;;27.72;56.17;99430.34;1737559;82;20201;-81
2022/08/02 08:54:37;;;;;;;6.10;3.47;;;;;;;27.66;55.76;99435.75;1730039;83;21153;-81
2022/08/02 08:57:50;;;;;;;5.28;3.22;;;;;;;27.63;56.47;99439.77;1731837;83;21656;-81
2022/08/02 09:00:55;;;;;;;5.22;3.02;;;;;;;27.72;55.04;99454.80;1731709;83;21171;-81
2022/08/02 09:04:01;;;;;;;3.85;3.10;;;;;;;27.78;56.19;99449.33;1730580;83;21180;-81
2022/08/02 09:07:07;;;;;;;3.72;3.20;;;;;;;27.88;55.83;99452.50;1717812;81;21212;-81
2022/08/02 09:10:42;;;;;;;3.70;3.30;;;;;;;27.98;56.04;99454.53;1729354;82;21196;-81
2022/08/02 09:13:58;;;;;;;3.67;3.27;;;;;;;28.03;54.43;99460.04;1726791;82;21716;-81
2022/08/02 09:17:16;;;;;;;3.67;3.20;;;;;;;28.03;54.48;99463.42;1732352;82;21208;-82
2022/08/02 09:20:21;;;;;;;4.65;2.87;;;;;;;27.75;53.20;99456.39;1727723;82;21732;-81
2022/08/02 09:23:27;;;;;;;3.70;3.20;;;;;;;27.75;53.20;99456.39;1720948;82;21160;-82
2022/08/02 09:30:17;;;;;;;4.80;3.65;;;;;;;27.81;54.23;99461.91;1854982;76;22183;-81
2022/08/02 09:33:26;;;;;;;4.42;3.52;;;;;;;27.88;54.55;99467.96;1804576;77;21864;-81
2022/08/02 09:36:32;;;;;;;5.50;3.87;;;;;;;28.12;53.70;99460.15;1762222;80;21508;-81
2022/08/02 09:39:38;;;;;;;4.05;3.60;;;;;;;28.32;54.40;99470.70;1765179;80;21184;-81
2022/08/02 09:42:47;;;;;;;5.47;4.00;;;;;;;28.37;53.72;99469.20;1747143;80;21173;-81
2022/08/02 09:45:53;;;;;;;6.12;3.80;;;;;;;28.28;53.71;99473.33;1786614;80;21154;-81
2022/08/02 09:49:00;;;;;;;5.35;3.65;;;;;;;28.25;53.83;99480.97;1772736;80;21156;-80
2022/08/02 09:52:07;;;;;;;3.92;3.52;;;;;;;28.27;53.40;99480.91;1781969;79;21162;-83
2022/08/02 09:55:13;;;;;;;4.55;3.62;;;;;;;28.15;52.54;99480.62;1762191;80;21252;-82
2022/08/02 09:58:25;;;;;;;4.47;4.00;;;;;;;28.15;52.54;99480.62;1774094;80;21757;-81
2022/08/02 10:01:39;;;;;;;5.22;3.92;;;;;;;28.08;53.05;99485.80;1789460;80;21204;-81
2022/08/02 10:04:45;;;;;;;6.65;3.70;;;;;;;27.93;53.55;99478.52;1764735;81;21176;-81
2022/08/02 10:07:53;;;;;;;4.55;4.03;;;;;;;27.90;53.53;99478.30;1767847;80;21247;-81
2022/08/02 10:11:00;;;;;;;4.83;3.92;;;;;;;27.95;54.76;99476.83;1777091;80;21713;-81
2022/08/02 10:14:06;;;;;;;4.67;3.95;;;;;;;28.05;55.64;99476.61;1797432;80;21879;-81
2022/08/02 10:17:11;;;;;;;5.47;4.35;;;;;;;28.15;54.84;99477.80;1781711;80;21785;-81
2022/08/02 10:20:18;;;;;;;6.42;4.05;;;;;;;28.30;55.16;99472.42;1791024;79;21204;-81
2022/08/02 10:23:24;;;;;;;7.03;4.25;;;;;;;28.45;53.66;99468.47;1760072;80;21208;-81
2022/08/02 10:26:30;;;;;;;5.03;4.30;;;;;;;28.33;52.41;99470.98;1766580;80;21149;-81
2022/08/02 10:29:39;;;;;;;6.25;4.20;;;;;;;28.33;52.41;99470.98;1745226;82;21245;-82
2022/08/02 10:32:50;;;;;;;4.83;3.60;;;;;;;28.24;51.99;99474.52;1772875;81;21188;-81
2022/08/02 10:35:58;;;;;;;5.20;4.30;;;;;;;28.26;51.29;99469.98;1786784;79;21149;-81
2022/08/02 10:39:06;;;;;;;4.35;3.83;;;;;;;28.28;53.34;99471.34;1743398;82;21780;-81
2022/08/02 10:42:12;;;;;;;4.95;4.40;;;;;;;28.36;52.78;99464.16;1742202;82;21205;-81
2022/08/02 10:45:28;;;;;;;5.17;4.17;;;;;;;28.37;50.67;99456.55;1757726;81;21177;-81
2022/08/02 10:48:35;;;;;;;5.10;4.58;;;;;;;28.44;52.19;99457.80;1759281;81;21205;-80
2022/08/02 10:52:02;;;;;;;5.05;4.25;;;;;;;28.44;52.19;99457.80;1750983;81;21757;-80
2022/08/02 10:55:10;;;;;;;7.53;4.17;;;;;;;28.35;53.08;99459.69;1759685;81;21710;-81
2022/08/02 10:58:30;;;;;;;5.28;4.60;;;;;;;28.35;53.08;99459.69;1738062;81;21201;-81
2022/08/02 11:01:37;;;;;;;4.72;4.22;;;;;;;28.33;53.68;99459.73;1764809;81;21178;-81
2022/08/02 11:04:50;;;;;;;5.62;4.50;;;;;;;28.30;54.95;99457.54;1754006;81;21161;-82
2022/08/02 11:07:56;;;;;;;5.05;4.30;;;;;;;28.38;54.22;99451.22;1740579;81;21162;-81
2022/08/02 11:11:19;;;;;;;4.83;4.25;;;;;;;28.45;51.50;99444.57;1755800;81;21166;-81
2022/08/02 11:14:27;;;;;;;4.85;3.95;;;;;;;28.45;51.50;99444.57;1747906;81;21209;-81
2022/08/02 11:17:33;;;;;;;4.60;4.12;;;;;;;28.57;53.01;99453.30;1756666;81;21225;-82
2022/08/02 11:20:39;;;;;;;8.03;4.60;;;;;;;28.63;51.18;99442.77;1765513;80;21246;-81
2022/08/02 11:23:48;;;;;;;7.72;4.60;;;;;;;28.69;50.96;99440.08;1765913;80;21730;-81
2022/08/02 11:26:53;;;;;;;5.10;4.17;;;;;;;28.69;50.96;99440.08;1773907;80;21778;-81
2022/08/02 11:29:58;;;;;;;6.72;4.75;;;;;;;28.69;50.53;99449.34;1772127;80;21233;-80
2022/08/02 11:40:53;;;;;;;4.78;4.28;;;;;;;28.68;50.63;99435.61;1844442;76;22184;-79
2022/08/02 11:44:03;;;;;;;4.45;4.05;;;;;;;28.76;51.94;99434.28;1806224;78;21135;-81
2022/08/02 11:47:11;;;;;;;5.45;4.37;;;;;;;28.62;51.83;99434.90;1801935;79;21198;-80
2022/08/02 11:50:16;;;;;;;5.20;4.33;;;;;;;28.62;52.34;99433.49;1815507;78;21121;-80
2022/08/02 11:53:24;;;;;;;6.42;4.58;;;;;;;28.66;52.29;99433.70;1820176;78;21143;-80
2022/08/02 11:56:37;;;;;;;4.55;4.15;;;;;;;28.44;51.13;99428.85;1811122;78;21169;-81
2022/08/02 11:59:39;;;;;;;6.62;4.17;;;;;;;28.36;50.78;99433.23;1748334;80;21154;-81
2022/08/02 12:02:37;;;;;;;5.50;4.50;;;;;;;28.25;50.45;99418.55;1748667;80;21725;-81
2022/08/02 12:05:43;;;;;;;6.40;4.50;;;;;;;28.25;50.45;99418.55;1755149;81;21219;-80
2022/08/02 12:08:50;;;;;;;5.40;4.17;;;;;;;28.09;51.87;99415.82;1749788;81;21732;-81
2022/08/02 12:11:57;;;;;;;7.22;4.37;;;;;;;28.09;51.87;99415.82;1751317;80;21191;-80
2022/08/02 12:15:03;;;;;;;8.65;4.55;;;;;;;28.11;51.56;99403.67;1758674;80;21169;-81
2022/08/02 12:21:36;;;;;;;7.35;4.80;;;;;;;28.12;52.43;99405.33;1750371;82;21139;-80
2022/08/02 12:24:43;;;;;;;9.00;4.78;;;;;;;28.22;53.04;99391.05;1746627;82;21267;-80
2022/08/02 12:27:50;;;;;;;5.30;4.22;;;;;;;28.27;52.94;99388.69;1766191;80;21284;-80
2022/08/02 12:31:02;;;;;;;5.60;4.42;;;;;;;28.17;52.75;99379.09;1749848;82;21741;-80
2022/08/02 12:34:08;;;;;;;5.87;4.72;;;;;;;28.01;52.28;99374.39;1750782;82;21200;-80
2022/08/02 12:37:15;;;;;;;6.00;4.70;;;;;;;27.91;53.30;99376.85;1709684;82;21208;-81
2022/08/02 12:40:38;;;;;;;6.87;4.37;;;;;;;27.81;53.03;99370.59;1742846;82;21300;-81
2022/08/02 12:43:44;;;;;;;6.87;4.53;;;;;;;27.90;54.27;99377.14;1733846;82;21213;-80
2022/08/02 12:46:49;;;;;;;6.67;5.08;;;;;;;27.85;54.24;99375.84;1682807;82;21276;-80
2022/08/02 12:50:17;;;;;;;5.33;4.40;;;;;;;27.81;54.05;99373.41;1776582;79;21154;-80
2022/08/02 12:53:23;;;;;;;5.67;4.53;;;;;;;27.74;52.51;99369.05;1712487;82;21729;-81
2022/08/02 12:56:37;;;;;;;5.10;4.60;;;;;;;27.78;53.59;99364.22;1795087;79;21172;-80
2022/08/02 12:59:44;;;;;;;5.28;4.70;;;;;;;27.79;53.55;99367.28;1775388;79;21215;-80
2022/08/02 13:02:50;;;;;;;5.20;4.70;;;;;;;27.87;53.13;99365.14;1786022;79;21195;-80
2022/08/02 13:05:57;;;;;;;7.17;4.45;;;;;;;27.83;54.04;99366.91;1806578;79;21151;-80
2022/08/02 13:09:04;;;;;;;6.05;4.58;;;;;;;27.89;52.55;99364.25;1807430;79;21345;-81
2022/08/02 13:12:11;;;;;;;11.05;4.85;;;;;;;27.98;51.93;99372.20;1807782;79;21261;-81
2022/08/02 13:15:16;;;;;;;6.35;5.42;;;;;;;28.06;53.15;99368.66;1771628;79;21784;-80
2022/08/02 13:18:24;;;;;;;8.00;5.83;;;;;;;28.01;53.64;99367.37;1769147;81;21543;-80
2022/08/02 13:21:31;;;;;;;7.35;5.65;;;;;;;27.91;55.98;99371.80;1816779;78;21774;-81
2022/08/02 13:24:40;;;;;;;9.08;5.67;;;;;;;27.86;56.49;99371.34;1791983;78;21148;-80
2022/08/02 13:27:48;;;;;;;6.12;5.00;;;;;;;28.02;56.77;99372.66;1785328;78;21172;-80
2022/08/02 13:30:55;;;;;;;6.65;4.08;;;;;;;27.93;55.66;99373.14;1788184;79;21168;-80
2022/08/02 13:34:02;;;;;;;4.37;3.62;;;;;;;27.94;52.70;99375.37;1770090;81;21705;-80
2022/08/02 13:37:07;;;;;;;8.45;4.53;;;;;;;28.07;52.92;99373.70;1771132;81;21223;-80
2022/08/02 13:40:14;;;;;;;7.87;3.85;;;;;;;28.14;50.94;99375.52;1734051;82;21198;-81
2022/08/02 13:43:20;;;;;;;4.53;3.85;;;;;;;28.17;50.29;99374.30;1744630;82;21217;-80
2022/08/02 13:46:27;;;;;;;5.97;3.87;;;;;;;28.24;50.31;99372.48;1746677;81;21173;-81
2022/08/02 13:49:27;;;;;;;5.35;4.03;;;;;;;28.28;50.90;99381.38;1757162;80;21250;-79
2022/08/02 13:52:35;;;;;;;4.60;3.90;;;;;;;28.34;50.96;99378.44;1759795;81;21189;-80
2022/08/02 13:55:41;;;;;;;5.05;4.55;;;;;;;28.28;51.33;99392.62;1774817;81;21746;-80
2022/08/02 13:58:49;;;;;;;4.85;4.35;;;;;;;28.28;51.57;99395.43;1774833;80;21250;-79
2022/08/02 14:01:55;;;;;;;5.62;4.12;;;;;;;28.28;51.57;99395.43;1755237;80;21203;-80
2022/08/02 14:05:04;;;;;;;5.95;4.15;;;;;;;28.30;50.77;99395.68;1752994;81;21190;-81
2022/08/02 14:08:09;;;;;;;4.60;3.80;;;;;;;28.24;50.39;99394.39;1774070;81;21214;-81
2022/08/02 14:11:14;;;;;;;4.95;4.45;;;;;;;28.15;51.32;99403.31;1776088;81;21540;-81
2022/08/02 14:14:19;;;;;;;7.47;4.85;;;;;;;27.97;52.79;99409.31;1776211;81;21218;-80
2022/08/02 14:17:24;;;;;;;6.65;4.85;;;;;;;27.97;52.79;99409.31;1775390;81;21735;-81
2022/08/02 14:20:29;;;;;;;7.15;4.75;;;;;;;27.91;53.26;99426.60;1775855;81;21159;-80
2022/08/02 14:23:30;;;;;;;4.90;4.40;;;;;;;28.02;53.71;99422.42;1773964;81;21210;-80
2022/08/02 14:26:26;;;;;;;10.10;4.47;;;;;;;27.87;53.93;99425.56;1774350;81;21202;-80
2022/08/02 14:29:13;;;;;;;8.68;4.60;;;;;;;27.90;54.62;99428.58;1776249;81;21742;-80
2022/08/02 14:32:05;;;;;;;8.93;4.80;;;;;;;27.87;54.88;99421.34;1775573;81;21194;-80
2022/08/02 14:35:10;;;;;;;8.10;4.50;;;;;;;27.61;55.11;99412.55;1777735;81;21147;-81
2022/08/02 14:38:18;;;;;;;11.50;4.40;;;;;;;27.49;55.71;99410.27;1775998;81;21350;-81
2022/08/02 14:41:25;;;;;;;5.75;4.53;;;;;;;27.53;56.08;99410.48;1772362;80;21187;-80
2022/08/02 14:44:30;;;;;;;7.75;4.95;;;;;;;27.39;56.72;99409.05;1798948;78;21164;-80
2022/08/02 14:47:36;;;;;;;5.37;4.78;;;;;;;27.28;58.21;99421.59;1738893;82;22122;-80
2022/08/02 14:50:42;;;;;;;5.60;4.58;;;;;;;27.24;57.57;99424.18;1713835;83;21188;-81
2022/08/02 14:53:49;;;;;;;7.62;4.90;;;;;;;27.11;57.77;99421.62;1738962;82;21206;-80
2022/08/02 14:56:56;;;;;;;10.18;5.60;;;;;;;26.98;59.17;99420.97;1738855;82;21302;-80
2022/08/02 14:59:55;;;;;;;5.75;4.80;;;;;;;26.98;59.03;99422.37;1717105;81;21165;-80
2022/08/02 15:03:00;;;;;;;;;;;;;;;26.95;59.49;99425.78;1736540;81;21239;-81
2022/08/02 15:06:07;;;;;;;8.20;5.47;;;;;;;26.85;60.62;99430.16;1713867;83;20195;-80
2022/08/02 15:09:12;;;;;;;5.72;5.08;;;;;;;26.84;61.23;99432.70;1713631;83;21213;-80
2022/08/02 15:12:17;;;;;;;7.90;5.85;;;;;;;26.77;62.21;99431.67;1749497;81;21172;-80
2022/08/02 15:15:24;;;;;;;6.40;5.80;;;;;;;26.62;62.54;99431.91;1714605;83;21232;-81
2022/08/02 15:18:30;;;;;;;10.10;5.97;;;;;;;26.41;63.26;99434.16;1739565;82;21477;-81
2022/08/02 15:21:36;;;;;;;7.15;6.22;;;;;;;26.29;63.89;99433.77;1740506;82;21729;-81
2022/08/02 15:24:42;;;;;;;8.43;6.50;;;;;;;26.16;65.14;99436.19;1740665;82;21158;-81
2022/08/02 15:27:48;;;;;;;7.95;6.12;;;;;;;25.99;65.36;99440.05;1743614;81;21161;-81
2022/08/02 15:30:54;;;;;;;7.65;6.70;;;;;;;25.91;65.66;99435.09;1740552;82;21216;-81
2022/08/02 15:34:00;;;;;;;5.55;4.72;;;;;;;25.81;66.30;99444.45;1739327;82;21208;-81
2022/08/02 15:37:05;;;;;;;11.63;6.55;;;;;;;25.86;66.85;99438.79;1740342;82;21754;-81
2022/08/02 15:40:12;;;;;;;6.67;5.45;;;;;;;25.86;66.81;99436.56;1740557;82;21181;-80
2022/08/02 15:43:18;;;;;;;6.95;6.00;;;;;;;25.75;67.54;99445.63;1738443;82;21209;-80
2022/08/02 15:46:23;;;;;;;7.83;6.08;;;;;;;25.78;67.47;99442.23;1738447;82;21189;-80
2022/08/02 15:49:30;;;;;;;7.40;6.05;;;;;;;25.70;67.51;99438.11;1738463;82;21777;-81
2022/08/02 15:52:38;;;;;;;8.15;6.25;;;;;;;25.78;66.88;99435.23;1717232;82;21773;-80
2022/08/02 15:55:44;;;;;;;9.38;6.12;;;;;;;25.74;67.05;99432.76;1738235;82;21242;-80
2022/08/02 15:58:52;;;;;;;7.47;6.33;;;;;;;25.69;67.50;99428.62;1736647;82;21168;-80
2022/08/02 16:01:58;;;;;;;10.23;7.17;;;;;;;25.67;67.48;99421.89;1737057;82;21232;-79
2022/08/02 16:04:57;;;;;;;8.75;6.33;;;;;;;25.63;67.97;99426.42;1738274;82;21205;-79
2022/08/02 16:08:06;;;;;;;9.40;5.97;;;;;;;25.68;67.02;99422.72;1737347;82;21185;-79
2022/08/02 16:11:11;;;;;;;9.98;6.42;;;;;;;25.65;67.42;99424.73;1738408;82;21205;-80
2022/08/02 16:14:17;;;;;;;7.35;5.97;;;;;;;25.55;67.77;99417.83;1737236;82;21205;-80
2022/08/02 16:17:22;;;;;;;8.28;6.20;;;;;;;25.47;68.24;99429.95;1737905;82;21239;-81
2022/08/02 16:20:30;;;;;;;8.93;6.03;;;;;;;25.46;68.04;99431.66;1737615;82;21173;-81
2022/08/02 16:23:35;;;;;;;9.35;6.78;;;;;;;25.39;68.16;99431.99;1737123;82;21197;-81
2022/08/02 16:26:42;;;;;;;11.45;6.33;;;;;;;25.27;68.73;99433.54;1737714;82;21173;-81
2022/08/02 16:29:48;;;;;;;8.00;5.83;;;;;;;25.21;69.02;99447.55;1737506;82;21816;-80
2022/08/02 16:32:54;;;;;;;7.17;5.85;;;;;;;25.15;69.27;99445.94;1737281;82;21741;-81
2022/08/02 16:35:59;;;;;;;8.08;6.58;;;;;;;25.15;69.96;99453.50;1737864;82;21173;-80
2022/08/02 16:39:05;;;;;;;7.85;6.70;;;;;;;25.06;71.26;99448.23;1738250;82;21161;-80
2022/08/02 16:42:10;;;;;;;7.55;6.75;;;;;;;25.02;71.45;99452.17;1736935;82;21204;-81
2022/08/02 16:45:17;;;;;;;8.43;6.17;;;;;;;24.95;71.60;99450.28;1734436;82;21795;-80
2022/08/02 16:48:23;;;;;;;9.18;6.75;;;;;;;24.91;72.53;99442.20;1771043;81;21195;-81
2022/08/02 16:51:29;;;;;;;7.53;6.65;;;;;;;24.85;72.61;99442.81;1771676;81;21164;-81
2022/08/02 16:54:37;;;;;;;7.33;6.53;;;;;;;24.69;73.05;99443.47;1770452;81;21223;-81
2022/08/02 16:57:44;;;;;;;9.70;6.42;;;;;;;24.60;73.81;99445.20;1771120;81;21239;-80
2022/08/02 17:00:52;;;;;;;8.95;6.97;;;;;;;24.51;74.97;99438.55;1771749;81;21736;-80
2022/08/02 17:03:58;;;;;;;9.08;7.53;;;;;;;24.47;75.43;99450.06;1771398;81;21159;-80
2022/08/02 17:07:04;;;;;;;13.53;7.65;;;;;;;24.42;75.71;99456.52;1771897;81;21760;-80
2022/08/02 17:10:13;;;;;;;8.68;7.10;;;;;;;24.31;76.04;99461.01;1774435;79;21222;-80
2022/08/02 17:13:19;;;;;;;10.50;7.37;;;;;;;24.20;77.00;99459.66;1796175;79;21787;-80
2022/08/02 17:16:24;;;;;;;10.35;7.60;;;;;;;24.17;77.36;99449.05;1803730;79;21160;-81
2022/08/02 17:19:30;;;;;;;11.90;7.92;;;;;;;24.10;77.83;99451.34;1803875;79;21128;-81
2022/08/02 17:22:36;;;;;;;11.43;8.08;;;;;;;24.03;77.95;99448.56;1800322;78;21185;-81
2022/08/02 17:25:42;;;;;;;9.28;7.87;;;;;;;23.93;78.59;99450.28;1723770;82;21619;-80
2022/08/02 17:28:50;;;;;;;9.60;8.33;;;;;;;23.89;79.09;99453.92;1794565;78;21140;-81
2022/08/02 17:31:57;;;;;;;10.90;8.60;;;;;;;23.81;80.21;99449.78;1725702;81;21170;-81
2022/08/02 17:35:05;;;;;;;10.95;9.03;;;;;;;23.75;81.09;99451.46;1790320;78;21164;-80
2022/08/02 17:38:13;;;;;;;11.35;8.73;;;;;;;23.64;82.67;99458.47;1786962;78;21189;-80
2022/08/02 17:41:21;;;;;;;13.95;8.65;;;;;;;23.61;83.03;99460.95;1752487;82;21178;-80
2022/08/02 17:44:28;;;;;;;10.40;9.08;;;;;;;23.54;83.80;99471.03;1822871;78;21535;-80
2022/08/02 17:47:35;;;;;;;19.27;10.55;;;;;;;23.47;86.52;99467.67;1797676;78;21169;-79
2022/08/02 17:50:42;;;;;;;14.43;9.95;;;;;;;23.43;88.28;99472.14;1835117;78;21694;-79
2022/08/02 17:53:50;;;;;;;12.05;9.53;;;;;;;23.29;89.80;99477.48;1761769;81;21750;-80
2022/08/02 17:56:57;;;;;;;12.80;9.68;;;;;;;23.23;91.01;99476.36;1836377;78;21184;-80
2022/08/02 18:00:08;;;;;;;12.35;10.50;;;;;;;23.05;92.88;99474.95;1763185;81;21209;-80
2022/08/02 18:03:14;;;;;;;11.18;9.63;;;;;;;22.92;94.85;99468.01;1835659;78;21773;-80
2022/08/02 18:06:20;;;;;;;11.18;9.60;;;;;;;22.88;95.80;99472.42;1763285;81;21722;-80
2022/08/02 18:09:26;;;;;;;14.55;9.30;;;;;;;22.74;97.63;99476.88;1836788;78;21494;-79
2022/08/02 18:12:33;;;;;;;12.82;10.72;;;;;;;22.61;98.28;99466.53;1762800;81;21208;-80
2022/08/02 18:15:39;;;;;;;12.13;10.05;;;;;;;22.57;98.87;99465.40;1835212;78;22162;-80
2022/08/02 18:18:46;;;;;;;13.35;10.18;;;;;;;22.51;98.71;99467.07;1762009;81;21812;-79
2022/08/02 18:21:53;;;;;;;13.75;10.95;;;;;;;22.37;98.98;99471.77;1763477;81;21316;-79
2022/08/02 18:24:59;;;;;;;15.23;11.05;;;;;;;22.31;100.00;99472.04;1835182;78;21185;-80
2022/08/02 18:28:06;;;;;;;19.02;11.97;;;;;;;22.20;100.00;99473.37;1761936;81;21777;-80